Time;durP1;ratioP1;P1;durP2;ratioP2;P2;SDS_P1;SDS_P2;PMS_P1;PMS_P2;Temp;Humidity;BMP_temperature;BMP_pressure;BME280_temperature;BME280_humidity;BME280_pressure;Samples;Min_cycle;Max_cycle;Signal;HPM_P1;HPM_P2
2023/07/24 04:01:02;;;;;;;0.60;0.10;;;21.90;1.00;;;;;;5791550;23;20922;-71
2023/07/24 04:03:30;;;;;;;0.60;0.17;;;21.70;1.00;;;;;;5010112;28;20441;-71
2023/07/24 04:05:58;;;;;;;0.60;0.10;;;21.60;1.00;;;;;;5010897;28;20433;-71
2023/07/24 04:08:26;;;;;;;0.60;0.20;;;21.60;1.00;;;;;;5013532;28;20470;-70
2023/07/24 04:10:55;;;;;;;0.60;0.10;;;21.40;1.00;;;;;;5006519;28;20470;-70
2023/07/24 04:13:23;;;;;;;0.60;0.10;;;21.40;1.00;;;;;;4995127;28;20541;-69
2023/07/24 04:15:51;;;;;;;0.60;0.10;;;21.40;1.00;;;;;;5067294;23;20497;-70
2023/07/24 04:18:20;;;;;;;0.60;0.10;;;21.50;1.00;;;;;;4995307;28;20812;-70
2023/07/24 04:20:48;;;;;;;0.60;0.10;;;21.50;1.00;;;;;;4994107;28;20577;-70
2023/07/24 04:23:16;;;;;;;0.60;0.10;;;21.40;1.00;;;;;;4994362;28;20453;-70
2023/07/24 04:25:44;;;;;;;0.60;0.20;;;21.50;1.00;;;;;;4994414;28;20520;-70
2023/07/24 04:28:12;;;;;;;0.60;0.10;;;;;;;;;;4994499;28;20866;-71
2023/07/24 04:30:40;;;;;;;0.60;0.10;;;21.60;1.00;;;;;;4993283;28;20473;-70
2023/07/24 04:33:08;;;;;;;0.60;0.10;;;21.60;1.00;;;;;;4985322;28;20542;-70
2023/07/24 04:35:37;;;;;;;0.60;0.10;;;21.60;1.00;;;;;;5005525;28;20519;-71
2023/07/24 04:38:05;;;;;;;0.60;0.10;;;21.60;1.00;;;;;;5006568;28;20527;-70
2023/07/24 04:40:33;;;;;;;0.60;0.10;;;21.60;1.00;;;;;;4987769;28;20951;-70
2023/07/24 04:43:01;;;;;;;0.60;0.10;;;21.60;1.00;;;;;;4995552;28;20540;-70
2023/07/24 04:45:30;;;;;;;0.60;0.20;;;;;;;;;;5005700;28;20461;-70
2023/07/24 04:47:57;;;;;;;0.60;0.10;;;21.50;1.00;;;;;;5013947;28;20445;-70
2023/07/24 04:50:26;;;;;;;0.60;0.10;;;;;;;;;;5014184;28;21025;-70
2023/07/24 04:52:55;;;;;;;0.60;0.10;;;21.50;1.00;;;;;;4981275;28;20454;-70
2023/07/24 04:55:23;;;;;;;0.60;0.20;;;21.40;1.00;;;;;;4974847;28;20470;-70
2023/07/24 04:57:51;;;;;;;0.60;0.10;;;21.50;1.00;;;;;;4974421;28;20442;-70
2023/07/24 05:00:19;;;;;;;0.60;0.10;;;21.50;1.00;;;;;;4974518;28;20491;-71
2023/07/24 05:02:47;;;;;;;0.60;0.10;;;21.50;1.00;;;;;;4983323;28;20786;-71
2023/07/24 05:05:15;;;;;;;0.60;0.10;;;21.50;1.00;;;;;;4980826;28;20475;-70
2023/07/24 05:07:43;;;;;;;0.60;0.20;;;21.50;1.00;;;;;;4974822;28;20852;-70
2023/07/24 05:10:13;;;;;;;0.60;0.10;;;21.60;1.00;;;;;;4975690;28;20637;-71
2023/07/24 05:12:42;;;;;;;0.60;0.10;;;21.60;1.00;;;;;;4985002;28;20471;-70
2023/07/24 05:15:10;;;;;;;0.90;0.80;;;21.60;1.00;;;;;;4974285;28;20573;-70
2023/07/24 05:17:39;;;;;;;0.60;0.20;;;;;;;;;;4974524;28;20451;-70
2023/07/24 05:20:08;;;;;;;0.60;0.20;;;21.50;1.00;;;;;;4982625;28;20450;-70
2023/07/24 05:22:36;;;;;;;0.60;0.10;;;21.60;1.00;;;;;;4983146;28;20460;-71
2023/07/24 05:25:04;;;;;;;0.60;0.10;;;21.60;1.00;;;;;;4978192;28;21215;-71
2023/07/24 05:27:34;;;;;;;0.60;0.10;;;21.70;1.00;;;;;;4974556;28;21019;-71
2023/07/24 05:30:01;;;;;;;0.60;0.10;;;21.60;1.00;;;;;;4974365;28;20485;-70
2023/07/24 05:32:30;;;;;;;0.60;0.10;;;;;;;;;;4989048;28;20527;-70
2023/07/24 05:34:58;;;;;;;0.77;0.43;;;;;;;;;;4993314;28;20537;-70
2023/07/24 05:37:26;;;;;;;0.60;0.10;;;21.70;1.00;;;;;;4993319;28;20556;-70
2023/07/24 05:39:53;;;;;;;0.60;0.20;;;21.80;1.00;;;;;;4992700;28;20524;-70
2023/07/24 05:42:21;;;;;;;0.60;0.10;;;21.80;1.00;;;;;;4991871;28;20478;-72
2023/07/24 05:44:50;;;;;;;0.60;0.10;;;21.90;1.00;;;;;;4991535;28;20472;-71
2023/07/24 05:47:18;;;;;;;0.60;0.20;;;;;;;;;;4992347;28;20492;-71
2023/07/24 05:49:47;;;;;;;0.60;0.10;;;;;;;;;;4989069;28;20813;-69
2023/07/24 05:52:14;;;;;;;0.60;0.20;;;22.00;1.00;;;;;;4992452;28;20796;-69
2023/07/24 05:54:43;;;;;;;0.60;0.10;;;;;;;;;;4985428;28;20987;-70
2023/07/24 05:57:10;;;;;;;0.60;0.10;;;22.10;1.00;;;;;;4975117;28;20450;-69
2023/07/24 05:59:38;;;;;;;0.67;0.10;;;22.10;1.00;;;;;;4998760;28;20445;-70
2023/07/24 06:02:09;;;;;;;0.60;0.10;;;22.20;1.00;;;;;;5003488;28;20484;-70
2023/07/24 06:04:37;;;;;;;0.60;0.10;;;22.20;1.00;;;;;;5001575;28;20553;-70
2023/07/24 06:07:05;;;;;;;0.60;0.10;;;22.20;1.00;;;;;;5002763;28;20571;-70
2023/07/24 06:09:33;;;;;;;0.60;0.20;;;22.30;1.00;;;;;;5000699;28;20478;-70
2023/07/24 06:12:01;;;;;;;0.80;0.63;;;;;;;;;;4994422;28;20441;-70
2023/07/24 06:14:29;;;;;;;0.60;0.10;;;22.20;1.00;;;;;;4999386;28;20548;-70
2023/07/24 06:16:57;;;;;;;0.60;0.10;;;;;;;;;;5006206;28;20441;-69
2023/07/24 06:19:26;;;;;;;0.60;0.10;;;22.30;1.00;;;;;;4973472;28;20456;-68
2023/07/24 06:21:54;;;;;;;1.80;1.70;;;22.30;1.00;;;;;;4972404;28;20485;-70
2023/07/24 06:24:23;;;;;;;0.60;0.20;;;;;;;;;;4971860;28;20487;-70
2023/07/24 06:26:51;;;;;;;0.60;0.10;;;;;;;;;;4972762;28;20485;-70
2023/07/24 06:29:19;;;;;;;0.60;0.10;;;22.10;1.00;;;;;;4972374;28;20474;-71
2023/07/24 06:31:47;;;;;;;1.43;0.70;;;;;;;;;;4972621;28;20443;-68
2023/07/24 06:34:15;;;;;;;0.60;0.20;;;21.90;1.00;;;;;;4972224;28;20473;-69
2023/07/24 06:36:45;;;;;;;4.73;0.97;;;21.90;1.00;;;;;;4972128;28;20542;-68
2023/07/24 06:39:13;;;;;;;0.60;0.30;;;;;;;;;;4986016;28;20802;-69
2023/07/24 06:41:41;;;;;;;0.60;0.20;;;;;;;;;;4975797;28;20486;-69
2023/07/24 06:44:09;;;;;;;0.80;0.20;;;;;;;;;;4991204;28;20469;-69
2023/07/24 06:46:37;;;;;;;0.80;0.30;;;;;;;;;;5000863;28;20457;-69
2023/07/24 06:49:05;;;;;;;0.60;0.10;;;22.10;1.00;;;;;;4994281;28;20447;-70
2023/07/24 06:51:33;;;;;;;0.60;0.10;;;;;;;;;;4974293;28;20541;-70
2023/07/24 06:54:08;;;;;;;1.03;0.47;;;22.30;1.00;;;;;;4972265;28;20971;-71
2023/07/24 06:56:36;;;;;;;0.60;0.10;;;22.20;1.00;;;;;;4986913;28;20461;-71
2023/07/24 06:59:06;;;;;;;0.60;0.10;;;22.20;1.00;;;;;;4999746;28;20544;-69
2023/07/24 07:01:34;;;;;;;3.33;1.50;;;22.10;1.00;;;;;;4990075;28;20919;-70
2023/07/24 07:04:02;;;;;;;0.80;0.20;;;;;;;;;;4972373;28;20454;-70
2023/07/24 07:06:31;;;;;;;5.73;5.43;;;;;;;;;;4972412;28;20450;-70
2023/07/24 07:08:58;;;;;;;3.17;1.47;;;22.20;1.00;;;;;;4975925;28;20447;-70
2023/07/24 07:11:28;;;;;;;0.80;0.40;;;;;;;;;;4985924;28;20508;-70
2023/07/24 07:13:56;;;;;;;5.27;4.97;;;;;;;;;;4990616;28;20530;-69
2023/07/24 07:16:24;;;;;;;0.70;0.30;;;22.10;1.00;;;;;;4991219;28;20538;-69
2023/07/24 07:18:53;;;;;;;0.70;0.43;;;;;;;;;;4998338;28;20444;-74
2023/07/24 07:21:20;;;;;;;2.17;1.23;;;22.20;1.00;;;;;;4997147;28;20477;-74
2023/07/24 07:23:48;;;;;;;1.37;0.63;;;22.40;1.00;;;;;;4993192;28;20458;-74
2023/07/24 07:26:17;;;;;;;0.60;0.10;;;;;;;;;;4995308;28;20442;-71
2023/07/24 07:28:46;;;;;;;0.70;0.20;;;22.70;1.00;;;;;;4992036;28;20787;-71
2023/07/24 07:31:14;;;;;;;0.80;0.77;;;22.90;1.00;;;;;;4984616;28;20456;-71
2023/07/24 07:33:42;;;;;;;0.70;0.13;;;23.10;1.00;;;;;;4973872;28;20466;-71
2023/07/24 07:36:10;;;;;;;0.67;0.20;;;;;;;;;;4991008;28;20514;-70
2023/07/24 07:38:39;;;;;;;1.97;1.23;;;;;;;;;;5002990;28;20533;-68
2023/07/24 07:41:08;;;;;;;1.13;0.63;;;23.00;1.00;;;;;;4997393;28;20465;-68
2023/07/24 07:43:37;;;;;;;1.13;0.70;;;23.10;1.00;;;;;;4995122;28;20539;-69
2023/07/24 07:46:07;;;;;;;0.70;0.20;;;23.20;1.00;;;;;;4995331;28;20466;-77
2023/07/24 07:48:34;;;;;;;1.33;0.47;;;23.20;1.00;;;;;;5004959;28;20481;-73
2023/07/24 07:51:02;;;;;;;0.70;0.20;;;23.00;1.00;;;;;;5001732;28;20485;-73
2023/07/24 07:53:31;;;;;;;0.70;0.20;;;23.20;1.00;;;;;;5010992;28;20518;-74
2023/07/24 07:56:00;;;;;;;0.70;0.20;;;23.30;1.00;;;;;;5004984;28;20509;-74
2023/07/24 07:58:28;;;;;;;0.70;0.20;;;23.40;1.00;;;;;;5000171;28;20825;-74
2023/07/24 08:00:56;;;;;;;0.87;0.60;;;23.40;1.00;;;;;;4997804;28;20462;-74
2023/07/24 08:03:26;;;;;;;1.07;0.27;;;;;;;;;;4995326;28;20486;-74
2023/07/24 08:05:57;;;;;;;1.03;0.93;;;23.40;1.00;;;;;;4995824;28;20809;-73
2023/07/24 08:08:26;;;;;;;0.90;0.50;;;;;;;;;;4995680;28;20435;-74
2023/07/24 08:10:54;;;;;;;0.70;0.20;;;;;;;;;;4995037;28;20455;-74
2023/07/24 08:13:24;;;;;;;1.37;1.03;;;23.40;1.00;;;;;;4995394;28;20439;-73
2023/07/24 08:15:52;;;;;;;0.70;0.10;;;23.40;1.00;;;;;;4993994;28;20843;-70
2023/07/24 08:18:20;;;;;;;0.70;0.30;;;;;;;;;;5012595;28;20531;-71
2023/07/24 08:20:49;;;;;;;2.13;0.53;;;23.30;1.00;;;;;;4995621;28;20446;-69
2023/07/24 08:23:17;;;;;;;0.70;0.20;;;23.20;1.00;;;;;;4996410;28;20577;-68
2023/07/24 08:25:52;;;;;;;2.20;2.00;;;23.10;1.00;;;;;;4997340;28;21252;-68
2023/07/24 08:28:20;;;;;;;0.70;0.20;;;23.10;1.00;;;;;;5008045;28;20552;-67
2023/07/24 08:30:57;;;;;;;0.70;0.20;;;;;;;;;;5002175;28;20452;-67
2023/07/24 08:33:26;;;;;;;0.70;0.10;;;23.20;1.00;;;;;;5004294;28;20933;-74
2023/07/24 08:36:02;;;;;;;0.70;0.20;;;23.20;1.00;;;;;;5001615;28;20475;-74
2023/07/24 08:38:31;;;;;;;1.20;0.50;;;;;;;;;;4996536;28;20551;-73
2023/07/24 08:41:03;;;;;;;0.87;0.30;;;23.10;1.00;;;;;;4981958;28;20901;-75
2023/07/24 08:43:31;;;;;;;0.70;0.20;;;23.20;1.00;;;;;;4987611;28;20491;-75
2023/07/24 08:46:01;;;;;;;1.37;0.50;;;23.30;1.00;;;;;;5010436;28;20471;-74
2023/07/24 08:48:35;;;;;;;0.60;0.13;;;23.40;1.00;;;;;;4995166;28;20541;-75
2023/07/24 08:51:05;;;;;;;3.40;0.37;;;23.40;1.00;;;;;;4983991;28;20506;-73
2023/07/24 08:53:35;;;;;;;0.70;0.17;;;23.50;1.00;;;;;;4990261;28;20489;-74
2023/07/24 08:56:04;;;;;;;0.70;0.20;;;23.60;1.00;;;;;;5003836;28;20493;-74
2023/07/24 08:58:32;;;;;;;1.80;1.70;;;23.50;1.00;;;;;;5011582;28;20471;-74
2023/07/24 09:01:02;;;;;;;2.03;0.67;;;23.50;1.00;;;;;;5000726;28;20485;-73
2023/07/24 09:03:30;;;;;;;1.23;1.13;;;;;;;;;;4996470;28;20560;-73
2023/07/24 09:05:58;;;;;;;0.70;0.20;;;23.70;1.00;;;;;;5001373;28;20487;-73
2023/07/24 09:08:34;;;;;;;0.70;0.20;;;23.80;1.00;;;;;;5001615;28;20451;-74
2023/07/24 09:11:04;;;;;;;0.80;0.60;;;23.80;1.00;;;;;;4999607;28;20491;-74
2023/07/24 09:13:32;;;;;;;1.03;0.83;;;23.90;1.00;;;;;;5002725;28;20855;-73
2023/07/24 09:16:00;;;;;;;0.70;0.20;;;24.00;1.00;;;;;;5004913;28;20485;-73
2023/07/24 09:18:38;;;;;;;0.93;0.80;;;24.10;1.00;;;;;;4996080;28;20463;-74
2023/07/24 09:21:06;;;;;;;0.70;0.20;;;24.20;1.00;;;;;;5000774;28;20543;-74
2023/07/24 09:23:36;;;;;;;2.13;1.47;;;24.20;1.00;;;;;;5007605;28;20509;-75
2023/07/24 09:26:06;;;;;;;0.70;0.10;;;24.40;1.00;;;;;;4992547;28;20487;-75
2023/07/24 09:28:35;;;;;;;1.53;0.70;;;24.30;1.00;;;;;;4996555;28;20471;-76
2023/07/24 09:31:03;;;;;;;0.70;0.20;;;24.30;1.00;;;;;;4988996;28;20455;-75
2023/07/24 09:33:41;;;;;;;0.70;0.30;;;24.50;1.00;;;;;;4997347;28;20499;-73
2023/07/24 09:36:10;;;;;;;0.70;0.20;;;24.70;1.00;;;;;;4997111;28;20492;-75
2023/07/24 09:38:41;;;;;;;0.70;0.20;;;24.60;1.00;;;;;;5002437;28;20453;-73
2023/07/24 09:41:11;;;;;;;0.80;0.37;;;;;;;;;;5004022;28;20486;-74
2023/07/24 09:43:40;;;;;;;1.63;0.87;;;24.50;1.00;;;;;;5003505;28;20476;-73
2023/07/24 09:46:09;;;;;;;0.90;0.60;;;24.20;1.00;;;;;;5005913;28;20558;-73
2023/07/24 09:48:57;;;;;;;0.70;0.20;;;24.20;1.00;;;;;;5004512;28;20501;-72
2023/07/24 09:51:32;;;;;;;0.70;0.10;;;24.30;1.00;;;;;;4995777;28;20506;-71
2023/07/24 09:54:07;;;;;;;0.70;0.20;;;24.40;1.00;;;;;;4992546;28;20437;-71
2023/07/24 09:56:36;;;;;;;0.70;0.13;;;24.50;1.00;;;;;;4992784;28;20465;-72
2023/07/24 09:59:17;;;;;;;0.70;0.17;;;;;;;;;;4999592;28;20458;-71
2023/07/24 10:01:45;;;;;;;0.70;0.10;;;24.90;1.00;;;;;;4998707;28;20937;-71
2023/07/24 10:04:15;;;;;;;12.50;2.70;;;25.00;1.00;;;;;;4990195;28;20897;-73
2023/07/24 10:06:44;;;;;;;0.70;0.10;;;25.10;1.00;;;;;;4992705;28;20463;-70
2023/07/24 10:09:14;;;;;;;2.63;1.83;;;25.20;1.00;;;;;;4987999;28;20820;-71
2023/07/24 10:11:41;;;;;;;0.70;0.10;;;25.20;1.00;;;;;;4992559;28;20523;-70
2023/07/24 10:14:10;;;;;;;1.47;0.43;;;;;;;;;;4994179;28;20447;-69
2023/07/24 10:16:38;;;;;;;3.43;0.97;;;;;;;;;;4997472;28;20467;-70
2023/07/24 10:19:14;;;;;;;1.23;1.07;;;24.90;1.00;;;;;;4997117;28;21069;-69
2023/07/24 10:21:46;;;;;;;1.47;0.83;;;24.90;1.00;;;;;;4999997;28;20443;-69
2023/07/24 10:24:15;;;;;;;0.93;0.30;;;24.90;1.00;;;;;;4992256;28;20495;-69
2023/07/24 10:27:04;;;;;;;1.90;1.03;;;24.80;1.00;;;;;;4997511;28;20893;-69
2023/07/24 10:29:36;;;;;;;1.07;0.47;;;;;;;;;;4993202;28;20537;-70
2023/07/24 10:32:05;;;;;;;0.70;0.30;;;24.70;1.00;;;;;;4992077;28;20540;-71
2023/07/24 10:34:40;;;;;;;0.70;0.30;;;24.70;1.00;;;;;;4991635;28;20463;-71
2023/07/24 10:37:09;;;;;;;2.80;1.40;;;24.80;1.00;;;;;;4984585;28;20494;-71
2023/07/24 10:39:42;;;;;;;0.70;0.10;;;25.00;1.00;;;;;;4985899;28;20483;-71
2023/07/24 10:42:11;;;;;;;0.80;0.50;;;24.90;1.00;;;;;;4992444;28;20527;-71
2023/07/24 10:44:40;;;;;;;1.50;0.77;;;25.00;1.00;;;;;;4990977;28;20495;-71
2023/07/24 10:47:08;;;;;;;2.87;1.70;;;;;;;;;;4991638;28;20535;-70
2023/07/24 10:49:36;;;;;;;0.90;0.57;;;24.90;1.00;;;;;;4991900;28;21051;-71
2023/07/24 10:52:05;;;;;;;2.97;0.53;;;24.90;1.00;;;;;;4991707;28;20454;-71
2023/07/24 10:54:33;;;;;;;3.43;1.23;;;;;;;;;;4985322;28;20478;-71
2023/07/24 10:57:02;;;;;;;1.73;1.10;;;24.90;1.00;;;;;;4994775;28;20470;-70
2023/07/24 10:59:37;;;;;;;3.00;1.53;;;24.90;1.00;;;;;;5001357;28;20782;-69
2023/07/24 11:02:06;;;;;;;0.90;0.40;;;25.00;1.00;;;;;;4973109;28;20536;-70
2023/07/24 11:04:34;;;;;;;1.43;0.43;;;25.10;1.00;;;;;;4982530;28;20499;-70
2023/07/24 11:07:02;;;;;;;0.80;0.40;;;;;;;;;;5000068;28;20514;-72
2023/07/24 11:09:38;;;;;;;1.00;0.43;;;25.10;1.00;;;;;;5010170;28;20443;-71
2023/07/24 11:12:16;;;;;;;1.00;0.70;;;25.10;1.00;;;;;;4994876;28;20840;-71
2023/07/24 11:14:48;;;;;;;0.90;0.50;;;25.10;1.00;;;;;;4988109;28;20472;-71
2023/07/24 11:17:16;;;;;;;0.90;0.70;;;;;;;;;;4993974;28;20802;-71
2023/07/24 11:19:45;;;;;;;1.43;0.80;;;25.10;1.00;;;;;;4994540;28;20551;-70
2023/07/24 11:22:12;;;;;;;1.20;0.87;;;24.90;1.00;;;;;;4994665;28;20446;-71
2023/07/24 11:24:45;;;;;;;1.83;1.07;;;25.00;1.00;;;;;;4991171;28;20495;-71
2023/07/24 11:27:16;;;;;;;0.70;0.20;;;25.00;1.00;;;;;;5005121;28;20443;-72
2023/07/24 11:29:48;;;;;;;0.70;0.10;;;25.10;1.00;;;;;;5005519;28;21149;-70
2023/07/24 11:32:19;;;;;;;2.53;2.13;;;25.30;1.00;;;;;;4997993;28;20566;-70
2023/07/24 11:34:48;;;;;;;0.77;0.20;;;25.40;1.00;;;;;;4999284;28;20515;-70
2023/07/24 11:37:17;;;;;;;2.30;1.60;;;;;;;;;;5009307;28;20574;-72
2023/07/24 11:39:56;;;;;;;16.73;1.73;;;25.20;1.00;;;;;;5001190;28;20913;-71
2023/07/24 11:42:27;;;;;;;1.00;0.43;;;25.30;1.00;;;;;;4998378;28;20451;-70
2023/07/24 11:44:55;;;;;;;4.83;2.00;;;25.20;1.00;;;;;;4975211;28;20586;-73
2023/07/24 11:47:23;;;;;;;1.50;0.97;;;25.20;1.00;;;;;;4976235;28;20452;-70
2023/07/24 11:49:58;;;;;;;1.63;0.87;;;25.30;1.00;;;;;;4989849;28;20469;-71
2023/07/24 11:52:27;;;;;;;2.20;0.90;;;;;;;;;;4994392;28;20452;-70
2023/07/24 11:55:00;;;;;;;1.30;1.00;;;25.50;1.00;;;;;;4995388;28;20555;-71
2023/07/24 11:57:30;;;;;;;1.80;1.17;;;25.50;1.00;;;;;;4990081;28;20747;-72
2023/07/24 11:59:58;;;;;;;1.57;0.90;;;;;;;;;;5005644;28;20496;-71
2023/07/24 12:02:27;;;;;;;2.73;1.60;;;25.40;1.00;;;;;;4983688;28;20457;-71
2023/07/24 12:04:58;;;;;;;0.90;0.47;;;;;;;;;;4975093;28;20496;-73
2023/07/24 12:07:32;;;;;;;2.97;1.47;;;25.80;1.00;;;;;;4975742;28;20453;-71
2023/07/24 12:10:01;;;;;;;1.07;0.40;;;25.90;1.00;;;;;;4976079;28;20457;-73
2023/07/24 12:12:41;;;;;;;2.07;0.73;;;25.70;1.00;;;;;;4993792;28;20498;-71
2023/07/24 12:15:10;;;;;;;1.93;1.10;;;25.70;1.00;;;;;;4980626;28;20860;-71
2023/07/24 12:17:38;;;;;;;1.40;1.13;;;;;;;;;;4993391;28;20957;-70
2023/07/24 12:20:09;;;;;;;2.50;1.83;;;25.70;1.00;;;;;;4989918;28;20870;-70
2023/07/24 12:22:38;;;;;;;1.60;1.23;;;27.60;1.00;;;;;;4991892;28;20453;-73
2023/07/24 12:25:07;;;;;;;1.93;1.50;;;25.70;1.00;;;;;;4973547;28;20489;-76
2023/07/24 12:27:35;;;;;;;1.20;0.50;;;;;;;;;;4974185;28;20488;-72
2023/07/24 12:30:05;;;;;;;2.00;1.83;;;26.00;1.00;;;;;;4973514;28;20473;-70
2023/07/24 12:32:34;;;;;;;4.73;1.07;;;;;;;;;;4974327;28;20898;-70
2023/07/24 12:35:02;;;;;;;1.80;1.17;;;;;;;;;;4977966;28;20555;-71
2023/07/24 12:37:30;;;;;;;1.10;0.47;;;;;;;;;;4994800;28;20543;-71
2023/07/24 12:39:58;;;;;;;1.13;0.53;;;;;;;;;;4994628;28;20846;-71
2023/07/24 12:42:26;;;;;;;1.30;0.43;;;26.10;1.00;;;;;;4994262;28;20451;-70
2023/07/24 12:44:55;;;;;;;1.67;1.10;;;;;;;;;;4994040;28;20531;-72
2023/07/24 12:47:27;;;;;;;1.27;1.03;;;;;;;;;;4994192;28;20942;-70
2023/07/24 12:49:57;;;;;;;10.43;2.57;;;;;;;;;;4989596;28;20536;-68
2023/07/24 12:52:25;;;;;;;1.17;0.73;;;26.10;1.00;;;;;;4980746;28;20492;-69
2023/07/24 12:54:53;;;;;;;3.73;2.10;;;;;;;;;;4974401;28;21074;-70
2023/07/24 12:57:29;;;;;;;0.90;0.50;;;25.90;1.00;;;;;;4975366;28;20942;-69
2023/07/24 12:59:57;;;;;;;1.00;0.50;;;25.50;1.00;;;;;;4975536;28;20522;-70
2023/07/24 13:02:25;;;;;;;1.00;0.40;;;;;;;;;;4975115;28;20487;-71
2023/07/24 13:04:55;;;;;;;3.53;1.60;;;25.60;1.00;;;;;;4976785;28;20489;-72
2023/07/24 13:07:22;;;;;;;0.80;0.33;;;25.60;1.00;;;;;;4975204;28;20540;-72
2023/07/24 13:09:50;;;;;;;1.00;0.50;;;25.60;1.00;;;;;;4976858;28;20461;-72
2023/07/24 13:12:19;;;;;;;2.23;1.00;;;;;;;;;;5004746;28;20444;-71
2023/07/24 13:14:47;;;;;;;0.70;0.30;;;;;;;;;;4999638;28;20562;-70
2023/07/24 13:17:15;;;;;;;2.40;1.70;;;;;;;;;;4997661;28;20453;-72
2023/07/24 13:19:43;;;;;;;1.53;1.30;;;;;;;;;;4982851;28;20488;-71
2023/07/24 13:22:13;;;;;;;0.80;0.40;;;25.20;1.00;;;;;;4999497;28;20456;-71
2023/07/24 13:24:40;;;;;;;1.10;0.40;;;25.30;1.00;;;;;;5012404;28;20515;-72
2023/07/24 13:27:09;;;;;;;1.97;1.43;;;;;;;;;;4996274;28;20468;-72
2023/07/24 13:29:36;;;;;;;0.93;0.67;;;25.40;1.00;;;;;;4995599;28;20458;-72
2023/07/24 13:32:05;;;;;;;0.90;0.60;;;25.40;1.00;;;;;;4993897;28;20468;-71
2023/07/24 13:34:33;;;;;;;0.70;0.20;;;25.50;1.00;;;;;;4991956;28;20878;-72
2023/07/24 13:37:01;;;;;;;1.00;0.30;;;;;;;;;;5010038;28;20499;-71
2023/07/24 13:39:31;;;;;;;24.43;2.60;;;25.70;1.00;;;;;;5009376;28;20443;-72
2023/07/24 13:41:59;;;;;;;0.70;0.30;;;25.80;1.00;;;;;;4992704;28;20874;-69
2023/07/24 13:44:27;;;;;;;0.90;0.40;;;;;;;;;;4998028;28;20558;-73
2023/07/24 13:46:56;;;;;;;0.70;0.20;;;;;;;;;;4992131;28;20456;-73
2023/07/24 13:49:23;;;;;;;2.40;1.03;;;25.80;1.00;;;;;;5003522;28;20948;-73
2023/07/24 13:51:52;;;;;;;2.00;1.03;;;;;;;;;;4982635;28;21025;-71
2023/07/24 13:54:19;;;;;;;2.97;1.50;;;25.90;1.00;;;;;;4995355;28;20916;-73
2023/07/24 13:56:49;;;;;;;2.70;1.17;;;25.80;1.00;;;;;;4994204;28;20437;-71
2023/07/24 13:59:17;;;;;;;3.57;2.07;;;;;;;;;;4984406;28;20511;-72
2023/07/24 14:01:45;;;;;;;1.57;1.03;;;25.70;1.00;;;;;;4991263;28;20450;-71
2023/07/24 14:04:14;;;;;;;1.93;0.77;;;25.50;1.00;;;;;;4988610;28;20487;-73
2023/07/24 14:06:42;;;;;;;1.00;0.90;;;;;;;;;;5003943;28;20567;-71
2023/07/24 14:09:11;;;;;;;1.97;1.40;;;;;;;;;;4999854;28;20962;-68
2023/07/24 14:11:39;;;;;;;1.67;1.17;;;;;;;;;;4994211;28;20449;-69
2023/07/24 14:14:08;;;;;;;9.43;0.97;;;24.20;1.00;;;;;;4992639;28;20481;-68
2023/07/24 14:16:37;;;;;;;1.67;1.33;;;;;;;;;;4997665;28;20472;-69
2023/07/24 14:19:08;;;;;;;1.30;1.10;;;24.50;1.00;;;;;;4992634;28;20459;-68
2023/07/24 14:21:36;;;;;;;2.90;1.50;;;;;;;;;;4990480;28;21127;-68
2023/07/24 14:24:05;;;;;;;3.57;0.97;;;24.60;1.00;;;;;;5002947;28;20610;-69
2023/07/24 14:26:33;;;;;;;1.83;1.13;;;;;;;;;;4990975;28;20491;-71
2023/07/24 14:29:01;;;;;;;1.53;0.90;;;;;;;;;;5002603;28;20514;-69
2023/07/24 14:31:31;;;;;;;1.13;0.63;;;25.00;1.00;;;;;;5006533;28;20973;-70
2023/07/24 14:33:59;;;;;;;2.20;2.00;;;;;;;;;;4993840;28;20582;-68
2023/07/24 14:36:33;;;;;;;0.90;0.63;;;25.10;1.00;;;;;;4999287;28;20462;-67
2023/07/24 14:39:02;;;;;;;1.73;1.63;;;;;;;;;;4992022;28;20504;-75
2023/07/24 14:41:30;;;;;;;1.47;0.30;;;;;;;;;;5002880;28;20464;-68
2023/07/24 14:43:58;;;;;;;1.37;0.30;;;25.20;1.00;;;;;;4996152;28;20507;-70
2023/07/24 14:46:26;;;;;;;0.70;0.10;;;;;;;;;;4995650;28;21023;-73
2023/07/24 14:48:56;;;;;;;0.80;0.30;;;25.50;1.00;;;;;;4996762;28;20562;-75
2023/07/24 14:51:26;;;;;;;1.27;0.80;;;;;;;;;;5003875;28;20466;-78
2023/07/24 14:53:53;;;;;;;0.80;0.40;;;25.60;1.00;;;;;;4993403;28;20448;-69
2023/07/24 14:56:21;;;;;;;2.20;1.23;;;25.50;1.00;;;;;;4992408;28;20551;-68
2023/07/24 14:58:49;;;;;;;1.87;1.47;;;;;;;;;;5005493;28;20880;-70
2023/07/24 15:01:17;;;;;;;0.80;0.30;;;25.30;1.00;;;;;;5004619;28;20547;-67
2023/07/24 15:03:45;;;;;;;0.70;0.20;;;25.30;1.00;;;;;;5011865;28;20535;-71
2023/07/24 15:06:14;;;;;;;1.43;1.27;;;25.40;1.00;;;;;;5005037;28;20489;-74
2023/07/24 15:08:43;;;;;;;0.70;0.20;;;;;;;;;;4990969;28;20509;-74
2023/07/24 15:11:12;;;;;;;1.00;0.63;;;;;;;;;;4984159;28;20453;-73
2023/07/24 15:13:40;;;;;;;2.03;1.03;;;25.60;1.00;;;;;;4993054;28;21019;-75
2023/07/24 15:16:08;;;;;;;0.70;0.20;;;;;;;;;;4992879;28;21056;-73
2023/07/24 15:18:36;;;;;;;1.10;0.40;;;25.50;1.00;;;;;;4988936;28;20450;-73
2023/07/24 15:21:05;;;;;;;0.70;0.30;;;;;;;;;;4973597;28;20499;-75
2023/07/24 15:23:34;;;;;;;2.77;2.57;;;25.50;1.00;;;;;;4973437;28;20481;-75
2023/07/24 15:26:02;;;;;;;1.23;0.80;;;;;;;;;;4973108;28;21085;-74
2023/07/24 15:28:30;;;;;;;2.63;1.20;;;;;;;;;;4973767;28;20552;-74
2023/07/24 15:30:59;;;;;;;0.93;0.77;;;;;;;;;;4974091;28;20454;-74
2023/07/24 15:33:28;;;;;;;0.80;0.33;;;;;;;;;;4973347;28;20453;-77
2023/07/24 15:35:57;;;;;;;0.70;0.20;;;;;;;;;;4973189;28;20531;-77
2023/07/24 15:38:24;;;;;;;3.90;0.93;;;24.80;1.00;;;;;;4973221;28;20455;-76
2023/07/24 15:40:54;;;;;;;2.13;1.43;;;24.00;23.50;;;;;;4973041;28;20472;-75
2023/07/24 15:43:24;;;;;;;3.47;1.10;;;;;;;;;;4972722;28;20539;-76
2023/07/24 15:45:52;;;;;;;0.70;0.10;;;;;;;;;;4972528;28;20475;-74
2023/07/24 15:48:20;;;;;;;0.67;0.20;;;;;;;;;;4973811;28;20493;-80
2023/07/24 15:50:54;;;;;;;1.17;0.50;;;;;;;;;;4972611;28;20482;-72
2023/07/24 15:53:22;;;;;;;0.60;0.10;;;20.70;99.90;;;;;;4973043;28;20815;-74
2023/07/24 15:55:50;;;;;;;0.60;0.10;;;;;;;;;;4980962;28;20508;-72
2023/07/24 15:58:20;;;;;;;1.53;0.50;;;21.00;99.90;;;;;;4972864;28;20505;-72
2023/07/24 16:00:47;;;;;;;0.60;0.10;;;21.30;99.90;;;;;;4972115;28;20533;-70
2023/07/24 16:03:15;;;;;;;0.60;0.10;;;21.70;99.90;;;;;;4974182;28;20501;-70
2023/07/24 16:05:43;;;;;;;0.60;0.10;;;22.00;99.90;;;;;;4976278;28;20471;-72
2023/07/24 16:08:12;;;;;;;0.70;0.30;;;;;;;;;;4975501;28;20451;-72
2023/07/24 16:10:41;;;;;;;0.67;0.20;;;23.10;99.90;;;;;;4981074;28;20470;-72
2023/07/24 16:13:10;;;;;;;0.70;0.33;;;;;;;;;;4994629;28;20534;-72
2023/07/24 16:15:39;;;;;;;1.07;0.43;;;22.80;99.90;;;;;;4990828;28;20564;-71
2023/07/24 16:18:10;;;;;;;0.60;0.10;;;23.00;99.90;;;;;;4975152;28;20478;-70
2023/07/24 16:20:38;;;;;;;0.70;0.20;;;;;;;;;;4975546;28;20451;-71
2023/07/24 16:23:08;;;;;;;0.70;0.20;;;;;;;;;;4975790;28;20559;-71
2023/07/24 16:25:36;;;;;;;0.70;0.17;;;23.60;94.20;;;;;;4976266;28;20563;-72
2023/07/24 16:28:04;;;;;;;0.70;0.23;;;;;;;;;;4975853;28;20545;-70
2023/07/24 16:30:32;;;;;;;1.53;0.90;;;;;;;;;;4975240;28;20516;-72
2023/07/24 16:33:03;;;;;;;1.37;1.23;;;23.90;64.30;;;;;;4977319;28;20513;-73
2023/07/24 16:35:31;;;;;;;0.90;0.57;;;24.10;60.50;;;;;;5002708;28;20495;-72
2023/07/24 16:37:59;;;;;;;0.90;0.33;;;;;;;;;;4995736;28;20493;-72
2023/07/24 16:40:31;;;;;;;0.70;0.20;;;;;;;;;;4999406;28;20932;-73
2023/07/24 16:42:59;;;;;;;0.97;0.67;;;;;;;;;;4990815;28;20563;-74
2023/07/24 16:45:27;;;;;;;1.07;0.93;;;24.30;40.50;;;;;;4993568;28;20585;-73
2023/07/24 16:48:05;;;;;;;3.27;0.90;;;24.20;21.20;;;;;;4998085;28;20483;-74
2023/07/24 16:50:34;;;;;;;0.70;0.10;;;24.00;24.20;;;;;;4991134;28;20468;-73
2023/07/24 16:53:03;;;;;;;0.70;0.20;;;24.10;23.80;;;;;;5000997;28;20450;-74
2023/07/24 16:55:31;;;;;;;0.70;0.10;;;;;;;;;;5001077;28;21014;-73
2023/07/24 16:57:59;;;;;;;1.20;0.47;;;;;;;;;;5001798;28;20536;-72
2023/07/24 17:00:28;;;;;;;0.70;0.10;;;;;;;;;;5003293;28;20491;-73
2023/07/24 17:02:56;;;;;;;1.03;0.53;;;23.70;20.30;;;;;;4994692;28;20542;-72
2023/07/24 17:05:25;;;;;;;0.80;0.40;;;23.50;19.70;;;;;;4994557;28;20471;-72
2023/07/24 17:07:53;;;;;;;1.20;0.47;;;;;;;;;;4999491;28;20491;-72
2023/07/24 17:10:21;;;;;;;0.70;0.30;;;;;;;;;;5003617;28;20540;-71
2023/07/24 17:12:50;;;;;;;1.00;0.60;;;;;;;;;;4997132;28;20546;-71
2023/07/24 17:15:18;;;;;;;1.03;0.50;;;;;;;;;;4993861;28;21052;-71
2023/07/24 17:17:46;;;;;;;0.80;0.23;;;23.60;16.50;;;;;;4989325;28;20957;-69
2023/07/24 17:20:14;;;;;;;1.13;0.53;;;23.60;15.60;;;;;;4995128;28;20455;-75
2023/07/24 17:22:44;;;;;;;0.80;0.50;;;;;;;;;;4999392;28;20443;-71
2023/07/24 17:25:14;;;;;;;0.70;0.10;;;;;;;;;;4994593;28;20981;-71
2023/07/24 17:27:42;;;;;;;1.27;1.17;;;23.90;9.10;;;;;;4993390;28;20915;-68
2023/07/24 17:30:10;;;;;;;2.30;2.20;;;;;;;;;;4993120;28;20564;-68
2023/07/24 17:32:39;;;;;;;0.70;0.20;;;;;;;;;;4995196;28;20486;-69
2023/07/24 17:35:07;;;;;;;0.70;0.10;;;;;;;;;;5000542;28;20464;-68
2023/07/24 17:37:36;;;;;;;0.70;0.20;;;;;;;;;;4993731;28;20447;-69
2023/07/24 17:40:08;;;;;;;1.63;0.60;;;;;;;;;;4994162;28;20444;-72
2023/07/24 17:42:37;;;;;;;0.70;0.17;;;23.90;1.00;;;;;;4994537;28;20489;-70